Time;durP1;ratioP1;P1;durP2;ratioP2;P2;SDS_P1;SDS_P2;PMS_P1;PMS_P2;Temp;Humidity;BMP_temperature;BMP_pressure;BME280_temperature;BME280_humidity;BME280_pressure;Samples;Min_cycle;Max_cycle;Signal;HPM_P1;HPM_P2
2023/06/05 00:00:19;;;;;;;3.40;3.10;;;;;;;;;;5049958;28;20893;-43
2023/06/05 00:02:46;;;;;;;4.97;3.50;;;;;;;;;;5054448;28;20402;-43
2023/06/05 00:05:12;;;;;;;7.13;2.60;;;;;;;;;;5046175;28;20420;-43
2023/06/05 00:07:38;;;;;;;8.20;3.63;;;;;;;;;;5054306;28;20446;-43
2023/06/05 00:10:05;;;;;;;6.03;3.03;;;;;;;;;;5054278;28;20412;-43
2023/06/05 00:12:31;;;;;;;3.73;2.90;;;;;;;;;;5051033;28;20421;-42
2023/06/05 00:14:57;;;;;;;7.13;3.20;;;;;;;;;;5052277;28;20460;-43
2023/06/05 00:17:24;;;;;;;8.87;2.90;;;;;;;;;;5054126;28;20410;-42
2023/06/05 00:19:50;;;;;;;5.77;3.07;;;;;;;;;;5049774;28;20431;-44
2023/06/05 00:22:16;;;;;;;3.10;2.83;;;;;;;;;;5049203;28;20441;-42
2023/06/05 00:24:42;;;;;;;3.23;2.93;;;;;;;;;;5053808;28;20492;-42
2023/06/05 00:27:08;;;;;;;11.73;3.27;;;;;;;;;;5053940;28;20894;-42
2023/06/05 00:29:34;;;;;;;2.70;2.50;;;;;;;;;;5049175;28;20994;-42
2023/06/05 00:32:00;;;;;;;6.07;3.03;;;;;;;;;;5053945;28;20816;-43
2023/06/05 00:34:26;;;;;;;3.00;2.80;;;;;;;;;;5045375;28;20439;-43
2023/06/05 00:36:52;;;;;;;4.90;3.10;;;;;;;;;;5052388;28;20384;-43
2023/06/05 00:39:19;;;;;;;7.83;3.10;;;;;;;;;;5053719;28;20388;-43
2023/06/05 00:41:45;;;;;;;6.60;2.70;;;;;;;;;;5052642;28;20397;-43
2023/06/05 00:44:11;;;;;;;6.20;3.67;;;;;;;;;;5044534;28;20411;-42
2023/06/05 00:46:39;;;;;;;11.00;2.90;;;;;;;;;;5046482;28;20420;-45
2023/06/05 00:49:05;;;;;;;5.67;2.73;;;;;;;;;;5045585;28;20384;-43
2023/06/05 00:51:31;;;;;;;3.57;3.00;;;;;;;;;;5052050;28;20424;-43
2023/06/05 00:53:57;;;;;;;4.80;2.80;;;;;;;;;;5050369;28;20853;-43
2023/06/05 00:56:23;;;;;;;3.33;3.13;;;;;;;;;;5053428;28;20885;-43
2023/06/05 00:58:49;;;;;;;8.00;3.53;;;;;;;;;;5054412;28;20397;-43
2023/06/05 01:01:16;;;;;;;8.53;3.50;;;;;;;;;;5056559;28;20426;-43
2023/06/05 01:03:44;;;;;;;5.10;3.17;;;;;;;;;;5044568;28;20861;-42
2023/06/05 01:06:11;;;;;;;4.07;3.40;;;;;;;;;;5052821;28;20467;-43
2023/06/05 01:08:41;;;;;;;5.00;2.80;;;;;;;;;;5050351;28;20495;-42
2023/06/05 01:11:19;;;;;;;4.60;3.10;;;;;;;;;;5052732;28;20408;-43
2023/06/05 01:13:51;;;;;;;6.57;3.50;;;;;;;;;;5044825;28;20401;-42
2023/06/05 01:16:18;;;;;;;6.87;3.67;;;;;;;;;;5052210;28;20472;-42
2023/06/05 01:18:45;;;;;;;11.10;3.40;;;;;;;;;;5049941;28;20735;-42
2023/06/05 01:21:15;;;;;;;3.80;3.17;;;;;;;;;;5046491;28;20943;-43
2023/06/05 01:23:44;;;;;;;4.57;3.23;;;;;;;;;;5052760;28;20381;-42
2023/06/05 01:26:11;;;;;;;6.70;3.50;;;;;;;;;;5052865;28;20409;-43
2023/06/05 01:28:38;;;;;;;3.53;3.23;;;;;;;;;;5049596;28;20905;-43
2023/06/05 01:31:06;;;;;;;4.40;3.27;;;;;;;;;;5053090;28;20425;-43
2023/06/05 01:33:41;;;;;;;6.90;3.50;;;;;;;;;;5052446;28;20515;-43
2023/06/05 01:36:08;;;;;;;3.13;2.90;;;;;;;;;;5047948;28;20429;-44
2023/06/05 01:38:35;;;;;;;3.93;3.07;;;;;;;;;;5052649;28;20416;-43
2023/06/05 01:41:02;;;;;;;5.87;3.20;;;;;;;;;;5052417;28;20403;-43
2023/06/05 01:43:28;;;;;;;4.80;3.80;;;;;;;;;;5052414;28;20430;-43
2023/06/05 01:45:56;;;;;;;5.87;3.73;;;;;;;;;;5050301;28;20437;-43
2023/06/05 01:48:23;;;;;;;4.33;3.37;;;;;;;;;;5046025;28;20479;-43
2023/06/05 01:50:53;;;;;;;5.53;4.00;;;;;;;;;;5052328;28;20843;-43
2023/06/05 01:53:19;;;;;;;4.93;3.40;;;;;;;;;;5042160;28;20379;-44
2023/06/05 01:55:46;;;;;;;4.47;3.30;;;;;;;;;;5052302;28;20755;-42
2023/06/05 01:58:12;;;;;;;6.27;3.53;;;;;;;;;;5052385;28;20387;-43
2023/06/05 02:00:38;;;;;;;4.97;3.70;;;;;;;;;;5047398;28;20532;-42
2023/06/05 02:03:05;;;;;;;4.53;3.83;;;;;;;;;;5052066;28;20955;-42
2023/06/05 02:05:33;;;;;;;4.20;3.80;;;;;;;;;;5044108;28;20476;-42
2023/06/05 02:07:59;;;;;;;4.67;3.90;;;;;;;;;;5050551;28;20424;-43
2023/06/05 02:10:25;;;;;;;5.03;3.70;;;;;;;;;;5052047;28;20444;-42
2023/06/05 02:12:51;;;;;;;7.93;4.03;;;;;;;;;;5051058;28;20491;-42
2023/06/05 02:15:17;;;;;;;5.80;4.60;;;;;;;;;;5047849;28;20955;-42
2023/06/05 02:17:52;;;;;;;4.43;3.80;;;;;;;;;;5049314;28;20429;-43
2023/06/05 02:20:19;;;;;;;7.63;3.77;;;;;;;;;;5043890;28;20475;-43
2023/06/05 02:22:45;;;;;;;4.80;4.27;;;;;;;;;;5050193;28;20977;-43
2023/06/05 02:25:12;;;;;;;8.90;3.80;;;;;;;;;;5051822;28;20948;-43
2023/06/05 02:27:38;;;;;;;8.33;3.90;;;;;;;;;;5047015;28;20387;-43
2023/06/05 02:30:04;;;;;;;7.03;4.63;;;;;;;;;;5051737;28;20549;-42
2023/06/05 02:32:31;;;;;;;5.93;3.80;;;;;;;;;;5043417;28;20408;-43
2023/06/05 02:34:57;;;;;;;9.27;4.63;;;;;;;;;;5043800;28;20478;-42
2023/06/05 02:37:24;;;;;;;4.80;4.40;;;;;;;;;;5050217;28;20502;-42
2023/06/05 02:39:50;;;;;;;4.90;4.47;;;;;;;;;;5051547;28;20428;-43
2023/06/05 02:42:18;;;;;;;6.03;4.60;;;;;;;;;;5051649;28;20507;-42
2023/06/05 02:44:44;;;;;;;13.93;4.87;;;;;;;;;;5036095;28;20883;-46
2023/06/05 02:47:10;;;;;;;6.33;4.40;;;;;;;;;;5051322;28;20474;-42
2023/06/05 02:49:37;;;;;;;4.37;4.00;;;;;;;;;;5048279;28;20793;-42
2023/06/05 02:52:03;;;;;;;6.50;4.80;;;;;;;;;;5051693;28;20478;-43
2023/06/05 02:54:29;;;;;;;4.23;3.83;;;;;;;;;;5043042;28;20499;-42
2023/06/05 02:56:56;;;;;;;4.63;3.57;;;;;;;;;;5051617;28;20492;-42
2023/06/05 02:59:24;;;;;;;9.27;4.73;;;;;;;;;;5045159;28;20486;-42
2023/06/05 03:01:52;;;;;;;6.40;4.10;;;;;;;;;;5051502;28;20432;-42
2023/06/05 03:04:21;;;;;;;8.03;4.43;;;;;;;;;;5051260;28;20481;-43
2023/06/05 03:06:53;;;;;;;8.07;4.23;;;;;;;;;;5049747;28;20420;-42
2023/06/05 03:09:20;;;;;;;5.40;4.70;;;;;;;;;;5057217;28;20424;-42
2023/06/05 03:11:46;;;;;;;7.40;4.43;;;;;;;;;;5055559;28;20754;-43
2023/06/05 03:14:12;;;;;;;5.13;4.37;;;;;;;;;;5053544;28;20474;-42
2023/06/05 03:16:41;;;;;;;6.47;4.53;;;;;;;;;;5047517;28;20408;-42
2023/06/05 03:19:10;;;;;;;10.10;4.60;;;;;;;;;;5054537;28;20897;-42
2023/06/05 03:21:40;;;;;;;6.63;4.57;;;;;;;;;;5052902;28;20427;-42
2023/06/05 03:24:12;;;;;;;8.83;4.77;;;;;;;;;;5050649;28;20420;-42
2023/06/05 03:26:39;;;;;;;4.40;4.00;;;;;;;;;;5048837;28;20425;-42
2023/06/05 03:29:06;;;;;;;7.90;4.53;;;;;;;;;;5055371;28;20430;-44
2023/06/05 03:31:31;;;;;;;5.40;4.60;;;;;;;;;;5045772;28;20421;-44
2023/06/05 03:33:59;;;;;;;8.80;5.10;;;;;;;;;;5055007;28;20382;-44
2023/06/05 03:36:25;;;;;;;7.30;4.70;;;;;;;;;;5054970;28;20464;-43
2023/06/05 03:38:51;;;;;;;6.10;4.70;;;;;;;;;;5050586;28;20416;-42
2023/06/05 03:41:18;;;;;;;10.40;4.67;;;;;;;;;;5054927;28;20426;-42
2023/06/05 03:43:44;;;;;;;6.30;4.60;;;;;;;;;;5039145;28;20410;-43
2023/06/05 03:46:18;;;;;;;5.50;4.80;;;;;;;;;;5053909;28;20505;-42
2023/06/05 03:48:59;;;;;;;5.53;4.93;;;;;;;;;;5044199;28;20404;-42
2023/06/05 03:51:29;;;;;;;5.50;5.00;;;;;;;;;;5054614;28;21059;-43
2023/06/05 03:53:56;;;;;;;4.43;4.03;;;;;;;;;;5051622;28;20887;-43
2023/06/05 03:56:23;;;;;;;6.10;4.80;;;;;;;;;;5051722;28;20531;-44
2023/06/05 03:58:49;;;;;;;7.10;4.60;;;;;;;;;;5046477;28;20480;-42
2023/06/05 04:01:15;;;;;;;8.23;5.30;;;;;;;;;;5053519;28;20583;-42
2023/06/05 04:03:41;;;;;;;9.70;5.03;;;;;;;;;;5051656;28;20403;-42
2023/06/05 04:06:08;;;;;;;7.10;4.90;;;;;;;;;;5054284;28;20421;-42
2023/06/05 04:08:36;;;;;;;8.60;5.23;;;;;;;;;;5048526;28;20890;-43
2023/06/05 04:11:02;;;;;;;4.70;4.23;;;;;;;;;;5054505;28;20436;-42
2023/06/05 04:13:31;;;;;;;5.30;4.80;;;;;;;;;;5054219;28;20927;-43
2023/06/05 04:15:58;;;;;;;6.43;5.00;;;;;;;;;;5053391;28;20566;-44
2023/06/05 04:18:24;;;;;;;8.80;5.23;;;;;;;;;;5052385;28;20563;-42
2023/06/05 04:20:50;;;;;;;6.90;4.83;;;;;;;;;;5054099;28;20473;-42
2023/06/05 04:23:16;;;;;;;5.90;5.03;;;;;;;;;;5048134;28;20413;-43
2023/06/05 04:25:45;;;;;;;7.40;4.93;;;;;;;;;;5054017;28;20407;-42
2023/06/05 04:28:11;;;;;;;8.13;4.83;;;;;;;;;;5054089;28;20486;-43
2023/06/05 04:30:37;;;;;;;8.23;5.10;;;;;;;;;;5051484;28;20431;-42
2023/06/05 04:33:06;;;;;;;6.70;5.43;;;;;;;;;;5053849;28;20412;-42
2023/06/05 04:35:33;;;;;;;6.33;4.97;;;;;;;;;;5044957;28;20472;-42
2023/06/05 04:38:00;;;;;;;9.43;5.47;;;;;;;;;;5053833;28;20428;-43
2023/06/05 04:40:26;;;;;;;8.20;4.60;;;;;;;;;;5046342;28;21069;-42
2023/06/05 04:42:54;;;;;;;5.17;4.63;;;;;;;;;;5053645;28;20485;-42
2023/06/05 04:45:21;;;;;;;6.63;4.60;;;;;;;;;;5050447;28;20415;-42
2023/06/05 04:47:47;;;;;;;5.33;4.43;;;;;;;;;;5049458;28;20426;-42
2023/06/05 04:50:24;;;;;;;5.97;5.07;;;;;;;;;;5053504;28;20525;-46
2023/06/05 04:52:50;;;;;;;6.50;5.33;;;;;;;;;;5029057;28;20895;-45
2023/06/05 04:55:16;;;;;;;8.70;5.40;;;;;;;;;;5045807;28;20489;-44
2023/06/05 04:57:43;;;;;;;7.23;4.00;;;;;;;;;;5054759;28;20459;-45
2023/06/05 05:00:10;;;;;;;8.37;4.53;;;;;;;;;;5054386;28;20822;-45
2023/06/05 05:02:36;;;;;;;6.83;4.67;;;;;;;;;;5050292;28;20421;-44
2023/06/05 05:05:02;;;;;;;6.43;4.80;;;;;;;;;;5054476;28;20513;-45
2023/06/05 05:07:30;;;;;;;8.00;5.47;;;;;;;;;;5047002;28;20417;-46
2023/06/05 05:09:56;;;;;;;9.73;6.00;;;;;;;;;;5053702;28;20449;-46
2023/06/05 05:12:22;;;;;;;5.63;5.07;;;;;;;;;;5054491;28;20775;-45
2023/06/05 05:14:48;;;;;;;11.20;5.80;;;;;;;;;;5053337;28;21158;-45
2023/06/05 05:17:16;;;;;;;9.37;5.87;;;;;;;;;;5050552;28;20845;-47
2023/06/05 05:19:42;;;;;;;8.33;6.60;;;;;;;;;;5048499;28;20443;-47
2023/06/05 05:22:08;;;;;;;7.80;6.23;;;;;;;;;;5054085;28;20413;-43
2023/06/05 05:24:34;;;;;;;10.53;6.07;;;;;;;;;;5053095;28;20398;-45
2023/06/05 05:27:00;;;;;;;7.80;5.53;;;;;;;;;;5053876;28;20407;-46
2023/06/05 05:29:27;;;;;;;6.83;5.80;;;;;;;;;;5049845;28;20431;-46
2023/06/05 05:31:53;;;;;;;8.17;5.40;;;;;;;;;;5054045;28;20402;-45
2023/06/05 05:34:19;;;;;;;8.47;5.97;;;;;;;;;;5045136;28;20408;-44
2023/06/05 05:36:45;;;;;;;7.13;5.40;;;;;;;;;;5053993;28;20872;-44
2023/06/05 05:39:11;;;;;;;9.17;5.90;;;;;;;;;;5053524;28;20420;-46
2023/06/05 05:41:37;;;;;;;6.50;5.47;;;;;;;;;;5053241;28;20415;-45
2023/06/05 05:44:05;;;;;;;10.17;5.07;;;;;;;;;;5049308;28;20440;-46
2023/06/05 05:46:31;;;;;;;5.73;4.23;;;;;;;;;;5053673;28;20882;-46
2023/06/05 05:48:57;;;;;;;8.57;4.73;;;;;;;;;;5049397;28;20381;-45
2023/06/05 05:51:23;;;;;;;8.03;5.97;;;;;;;;;;5049415;28;20447;-45
2023/06/05 05:53:50;;;;;;;8.30;4.80;;;;;;;;;;5052168;28;20705;-46
2023/06/05 05:56:16;;;;;;;6.13;4.87;;;;;;;;;;5050231;28;20467;-44
2023/06/05 05:58:43;;;;;;;7.90;5.33;;;;;;;;;;5049459;28;20401;-46
2023/06/05 06:01:09;;;;;;;7.20;5.23;;;;;;;;;;5053064;28;20486;-45
2023/06/05 06:03:37;;;;;;;9.67;4.87;;;;;;;;;;5045646;28;20408;-46
2023/06/05 06:06:06;;;;;;;9.30;5.50;;;;;;;;;;5052358;28;20395;-46
2023/06/05 06:08:33;;;;;;;6.40;4.70;;;;;;;;;;5053040;28;20405;-47
2023/06/05 06:10:59;;;;;;;6.80;5.30;;;;;;;;;;5051359;28;20492;-45
2023/06/05 06:13:26;;;;;;;5.53;5.03;;;;;;;;;;5050043;28;20413;-45
2023/06/05 06:15:52;;;;;;;5.97;5.47;;;;;;;;;;5052828;28;21026;-45
2023/06/05 06:18:19;;;;;;;7.67;5.20;;;;;;;;;;5045693;28;20449;-45
2023/06/05 06:20:44;;;;;;;5.90;5.03;;;;;;;;;;5046107;28;20405;-45
2023/06/05 06:23:10;;;;;;;6.70;4.50;;;;;;;;;;5049787;28;20759;-45
2023/06/05 06:25:37;;;;;;;5.60;4.90;;;;;;;;;;5050825;28;20815;-45
2023/06/05 06:28:03;;;;;;;5.17;4.67;;;;;;;;;;5048361;28;20470;-46
2023/06/05 06:30:29;;;;;;;8.00;5.27;;;;;;;;;;5039020;28;20487;-46
2023/06/05 06:32:58;;;;;;;5.10;4.60;;;;;;;;;;5052773;28;20454;-45
2023/06/05 06:35:24;;;;;;;9.13;4.80;;;;;;;;;;5033945;28;20485;-46
2023/06/05 06:37:53;;;;;;;6.70;5.17;;;;;;;;;;5053023;28;20380;-46
2023/06/05 06:40:20;;;;;;;4.73;4.33;;;;;;;;;;5051818;28;20980;-44
2023/06/05 06:42:46;;;;;;;8.47;5.40;;;;;;;;;;5048332;28;20386;-46
2023/06/05 06:45:12;;;;;;;11.40;5.30;;;;;;;;;;5046880;28;20421;-45
2023/06/05 06:47:38;;;;;;;6.87;5.37;;;;;;;;;;5053045;28;20799;-46
2023/06/05 06:50:04;;;;;;;11.33;6.13;;;;;;;;;;5053251;28;20461;-45
2023/06/05 06:52:30;;;;;;;7.80;5.33;;;;;;;;;;5049458;28;20475;-46
2023/06/05 06:54:56;;;;;;;9.20;5.40;;;;;;;;;;5052875;28;20451;-45
2023/06/05 06:57:22;;;;;;;5.53;4.83;;;;;;;;;;5052530;28;20481;-44
2023/06/05 06:59:48;;;;;;;5.80;4.90;;;;;;;;;;5052633;28;20481;-44
2023/06/05 07:02:15;;;;;;;5.73;5.10;;;;;;;;;;5045074;28;20769;-44
2023/06/05 07:04:42;;;;;;;6.17;5.00;;;;;;;;;;5051859;28;20388;-47
2023/06/05 07:07:12;;;;;;;7.80;5.20;;;;;;;;;;5034880;28;20779;-46
2023/06/05 07:09:42;;;;;;;8.23;4.73;;;;;;;;;;5048688;28;20423;-46
2023/06/05 07:12:08;;;;;;;7.60;5.50;;;;;;;;;;5052796;28;20420;-45
2023/06/05 07:14:34;;;;;;;5.60;4.93;;;;;;;;;;5044568;28;20490;-46
2023/06/05 07:17:01;;;;;;;6.23;5.30;;;;;;;;;;5052455;28;20374;-46
2023/06/05 07:19:28;;;;;;;6.47;5.77;;;;;;;;;;5052529;28;20403;-46
2023/06/05 07:21:55;;;;;;;5.30;4.80;;;;;;;;;;5052740;28;20483;-45
2023/06/05 07:24:21;;;;;;;7.60;5.70;;;;;;;;;;5051640;28;20407;-45
2023/06/05 07:26:47;;;;;;;7.60;4.80;;;;;;;;;;5051429;28;20399;-45
2023/06/05 07:29:13;;;;;;;7.50;4.97;;;;;;;;;;5046131;28;20952;-44
2023/06/05 07:31:39;;;;;;;8.43;4.70;;;;;;;;;;5051447;28;20492;-47
2023/06/05 07:34:05;;;;;;;5.50;5.00;;;;;;;;;;5052695;28;20480;-45
2023/06/05 07:36:31;;;;;;;6.43;5.17;;;;;;;;;;5044380;28;21031;-45
2023/06/05 07:38:57;;;;;;;7.97;5.40;;;;;;;;;;5052918;28;20964;-44
2023/06/05 07:41:23;;;;;;;7.77;5.00;;;;;;;;;;5042418;28;20420;-45
2023/06/05 07:43:49;;;;;;;7.97;6.73;;;;;;;;;;5053157;28;20417;-45
2023/06/05 07:46:16;;;;;;;9.23;5.20;;;;;;;;;;5052256;28;20441;-45
2023/06/05 07:48:45;;;;;;;8.70;5.57;;;;;;;;;;5050751;28;20409;-46
2023/06/05 07:51:14;;;;;;;7.40;5.17;;;;;;;;;;5055235;28;20849;-45
2023/06/05 07:53:40;;;;;;;5.50;4.60;;;;;;;;;;5055617;28;20447;-45
2023/06/05 07:56:06;;;;;;;8.80;5.60;;;;;;;;;;5048184;28;20452;-46
2023/06/05 07:58:34;;;;;;;5.67;5.10;;;;;;;;;;5057190;28;20407;-45
2023/06/05 08:01:03;;;;;;;12.53;5.80;;;;;;;;;;5046374;28;20428;-44
2023/06/05 08:03:29;;;;;;;8.30;5.23;;;;;;;;;;5035650;28;20894;-46
2023/06/05 08:05:55;;;;;;;5.77;5.20;;;;;;;;;;5047988;28;20488;-46
2023/06/05 08:08:21;;;;;;;11.60;3.90;;;;;;;;;;5049526;28;20418;-45
2023/06/05 08:10:47;;;;;;;7.80;4.80;;;;;;;;;;5054722;28;21058;-45
2023/06/05 08:13:13;;;;;;;7.53;4.13;;;;;;;;;;5055001;28;20416;-44
2023/06/05 08:15:39;;;;;;;11.77;4.50;;;;;;;;;;5055356;28;20462;-45
2023/06/05 08:18:05;;;;;;;9.10;4.90;;;;;;;;;;5059673;28;20916;-45
2023/06/05 08:20:31;;;;;;;5.10;4.40;;;;;;;;;;5051661;28;20429;-45
2023/06/05 08:22:57;;;;;;;7.37;5.27;;;;;;;;;;5055387;28;20839;-45
2023/06/05 08:25:27;;;;;;;7.43;5.33;;;;;;;;;;5047420;28;20430;-45
2023/06/05 08:27:53;;;;;;;5.60;4.93;;;;;;;;;;5054218;28;20433;-45
2023/06/05 08:30:19;;;;;;;13.83;5.50;;;;;;;;;;5055713;28;20842;-45
2023/06/05 08:32:45;;;;;;;10.43;4.67;;;;;;;;;;5053964;28;20405;-44
2023/06/05 08:35:14;;;;;;;5.17;4.33;;;;;;;;;;5049104;28;20504;-45
2023/06/05 08:37:41;;;;;;;4.10;3.53;;;;;;;;;;5053803;28;20876;-45
2023/06/05 08:40:10;;;;;;;5.60;4.53;;;;;;;;;;5054861;28;20460;-46
2023/06/05 08:42:37;;;;;;;4.00;3.60;;;;;;;;;;5052282;28;20537;-44
2023/06/05 08:45:04;;;;;;;6.10;4.00;;;;;;;;;;5054788;28;20421;-45
2023/06/05 08:47:31;;;;;;;4.60;3.03;;;;;;;;;;5046364;28;20501;-44
2023/06/05 08:49:57;;;;;;;5.63;4.23;;;;;;;;;;5054395;28;20454;-45
2023/06/05 08:52:24;;;;;;;5.77;3.63;;;;;;;;;;5047232;28;20420;-44
2023/06/05 08:54:50;;;;;;;6.90;3.60;;;;;;;;;;5052463;28;20472;-45
2023/06/05 08:57:16;;;;;;;5.77;3.93;;;;;;;;;;5053915;28;20474;-47
2023/06/05 08:59:42;;;;;;;5.57;3.73;;;;;;;;;;5050292;28;20432;-46
2023/06/05 09:02:09;;;;;;;6.10;4.03;;;;;;;;;;5052318;28;20496;-45
2023/06/05 09:04:35;;;;;;;4.43;3.90;;;;;;;;;;5053982;28;20434;-45
2023/06/05 09:07:01;;;;;;;6.37;3.60;;;;;;;;;;5054078;28;20904;-47
2023/06/05 09:09:27;;;;;;;5.77;3.40;;;;;;;;;;5053887;28;20445;-44
2023/06/05 09:12:04;;;;;;;5.50;3.47;;;;;;;;;;5053768;28;20870;-44
2023/06/05 09:14:33;;;;;;;4.23;3.83;;;;;;;;;;5053415;28;20452;-45
2023/06/05 09:17:00;;;;;;;11.30;6.47;;;;;;;;;;5053501;28;20412;-47
2023/06/05 09:19:35;;;;;;;4.37;3.33;;;;;;;;;;5053602;28;20444;-47
2023/06/05 09:22:01;;;;;;;11.83;3.77;;;;;;;;;;5053933;28;20424;-45
2023/06/05 09:24:29;;;;;;;4.83;3.80;;;;;;;;;;5052758;28;20463;-45
2023/06/05 09:26:59;;;;;;;3.67;3.30;;;;;;;;;;5052553;28;20413;-45
2023/06/05 09:29:29;;;;;;;11.23;3.20;;;;;;;;;;5053335;28;20430;-47
2023/06/05 09:31:57;;;;;;;6.50;3.53;;;;;;;;;;5053489;28;20500;-46
2023/06/05 09:34:27;;;;;;;9.20;3.80;;;;;;;;;;5052826;28;20417;-46
2023/06/05 09:36:54;;;;;;;6.30;3.77;;;;;;;;;;5035150;28;20417;-46
2023/06/05 09:39:21;;;;;;;6.40;3.80;;;;;;;;;;5053615;28;20414;-46
2023/06/05 09:41:49;;;;;;;3.97;3.57;;;;;;;;;;5053632;28;20547;-47
2023/06/05 09:44:15;;;;;;;4.23;3.83;;;;;;;;;;5053393;28;20416;-46
2023/06/05 09:46:53;;;;;;;6.73;4.23;;;;;;;;;;5053795;28;20401;-45
2023/06/05 09:49:20;;;;;;;4.30;3.90;;;;;;;;;;5054071;28;20433;-45
2023/06/05 09:51:47;;;;;;;7.40;4.53;;;;;;;;;;5049455;28;20411;-45
2023/06/05 09:54:13;;;;;;;4.20;3.80;;;;;;;;;;5050077;28;21026;-45
2023/06/05 09:56:43;;;;;;;4.47;3.20;;;;;;;;;;5048677;28;20518;-43
2023/06/05 09:59:10;;;;;;;4.93;3.97;;;;;;;;;;5048102;28;20418;-45
2023/06/05 10:01:36;;;;;;;6.20;4.40;;;;;;;;;;5053465;28;20428;-45
2023/06/05 10:04:06;;;;;;;4.87;4.33;;;;;;;;;;5052903;28;20467;-46
2023/06/05 10:06:33;;;;;;;4.30;3.90;;;;;;;;;;5050846;28;20446;-45
2023/06/05 10:09:00;;;;;;;5.03;3.50;;;;;;;;;;5052698;28;20471;-45
2023/06/05 10:11:26;;;;;;;4.67;4.20;;;;;;;;;;5044803;28;20468;-45
2023/06/05 10:13:53;;;;;;;5.80;4.97;;;;;;;;;;5052562;28;20409;-45
2023/06/05 10:16:20;;;;;;;10.97;4.57;;;;;;;;;;5045946;28;20526;-45
2023/06/05 10:18:46;;;;;;;7.37;4.40;;;;;;;;;;5052577;28;20444;-45
2023/06/05 10:21:15;;;;;;;8.47;4.47;;;;;;;;;;5053167;28;20429;-45
2023/06/05 10:23:42;;;;;;;4.53;3.43;;;;;;;;;;5048855;28;20405;-46
2023/06/05 10:26:14;;;;;;;3.93;3.60;;;;;;;;;;5052219;28;20413;-47
2023/06/05 10:28:58;;;;;;;5.07;4.50;;;;;;;;;;5044086;28;20464;-47
2023/06/05 10:31:47;;;;;;;5.27;3.90;;;;;;;;;;5052217;28;20491;-46
2023/06/05 10:34:27;;;;;;;5.43;4.07;;;;;;;;;;5038407;28;20929;-46
2023/06/05 10:37:11;;;;;;;4.63;3.63;;;;;;;;;;5045591;28;20401;-45
2023/06/05 10:39:37;;;;;;;8.50;3.73;;;;;;;;;;5050496;28;20432;-47
2023/06/05 10:42:03;;;;;;;4.07;3.70;;;;;;;;;;5051482;28;20523;-46
2023/06/05 10:44:39;;;;;;;5.00;3.70;;;;;;;;;;5045011;28;20900;-47
2023/06/05 10:47:25;;;;;;;4.60;4.10;;;;;;;;;;5051971;28;20397;-45
2023/06/05 10:50:09;;;;;;;8.10;4.67;;;;;;;;;;5046199;28;20443;-45
2023/06/05 10:52:36;;;;;;;4.83;3.80;;;;;;;;;;5048751;28;20410;-43
2023/06/05 10:55:02;;;;;;;5.63;3.00;;;;;;;;;;5051481;28;20469;-43
2023/06/05 10:57:48;;;;;;;4.40;3.20;;;;;;;;;;5044948;28;20415;-43
2023/06/05 11:00:14;;;;;;;5.50;4.30;;;;;;;;;;5051391;28;20428;-43
2023/06/05 11:02:47;;;;;;;4.23;3.77;;;;;;;;;;5041047;28;20781;-44
2023/06/05 11:05:13;;;;;;;6.40;3.47;;;;;;;;;;5051455;28;20484;-43
2023/06/05 11:07:39;;;;;;;4.50;3.43;;;;;;;;;;5043129;28;20463;-43
2023/06/05 11:10:08;;;;;;;3.63;3.00;;;;;;;;;;5050557;28;20452;-43
2023/06/05 11:12:43;;;;;;;4.33;3.53;;;;;;;;;;5045291;28;20528;-45
2023/06/05 11:15:10;;;;;;;3.37;3.07;;;;;;;;;;5043154;28;20490;-43
2023/06/05 11:17:37;;;;;;;3.07;2.77;;;;;;;;;;5048736;28;20421;-43
2023/06/05 11:20:10;;;;;;;3.17;2.87;;;;;;;;;;5051212;28;20928;-43
2023/06/05 11:22:54;;;;;;;3.53;3.23;;;;;;;;;;5046309;28;20802;-43
2023/06/05 11:25:30;;;;;;;3.73;3.27;;;;;;;;;;5052237;28;20463;-43
2023/06/05 11:27:58;;;;;;;3.50;2.90;;;;;;;;;;5049900;28;20416;-43
2023/06/05 11:30:26;;;;;;;4.10;3.10;;;;;;;;;;5051791;28;20905;-43
2023/06/05 11:32:57;;;;;;;3.93;2.47;;;;;;;;;;5055173;28;20440;-44
2023/06/05 11:35:25;;;;;;;5.40;2.90;;;;;;;;;;5052373;28;20453;-43
2023/06/05 11:38:07;;;;;;;3.00;2.80;;;;;;;;;;5050347;28;20551;-44
2023/06/05 11:40:33;;;;;;;5.73;3.00;;;;;;;;;;5057192;28;20963;-44
2023/06/05 11:43:03;;;;;;;3.40;2.63;;;;;;;;;;5055044;28;20426;-44
2023/06/05 11:45:29;;;;;;;3.27;2.50;;;;;;;;;;5054860;28;20425;-44
2023/06/05 11:48:03;;;;;;;2.70;2.10;;;;;;;;;;5054820;28;20431;-44
2023/06/05 11:50:30;;;;;;;2.47;2.27;;;;;;;;;;5054701;28;20820;-44
2023/06/05 11:53:04;;;;;;;3.50;2.70;;;;;;;;;;5054482;28;20409;-43
2023/06/05 11:55:42;;;;;;;4.20;2.80;;;;;;;;;;5054659;28;20540;-43
2023/06/05 11:58:08;;;;;;;5.30;2.80;;;;;;;;;;5054709;28;20428;-44
2023/06/05 12:00:35;;;;;;;6.70;3.07;;;;;;;;;;5053834;28;20478;-44
2023/06/05 12:03:01;;;;;;;2.83;2.63;;;;;;;;;;5053799;28;20881;-44
2023/06/05 12:05:27;;;;;;;3.00;2.67;;;;;;;;;;5054334;28;20579;-44
2023/06/05 12:07:53;;;;;;;2.50;2.30;;;;;;;;;;5043263;28;20417;-44
2023/06/05 12:10:20;;;;;;;5.80;2.80;;;;;;;;;;5034381;28;20462;-45
2023/06/05 12:12:55;;;;;;;3.23;2.93;;;;;;;;;;5034283;28;20413;-44
2023/06/05 12:15:21;;;;;;;7.90;2.70;;;;;;;;;;5034426;28;20464;-44
2023/06/05 12:17:50;;;;;;;2.00;1.90;;;;;;;;;;5034165;28;20768;-44
2023/06/05 12:20:17;;;;;;;3.60;2.80;;;;;;;;;;5034410;28;20418;-44
2023/06/05 12:22:43;;;;;;;3.70;3.07;;;;;;;;;;5034131;28;20413;-44
2023/06/05 12:25:17;;;;;;;2.90;2.67;;;;;;;;;;5034160;28;20414;-44
2023/06/05 12:27:44;;;;;;;5.10;2.60;;;;;;;;;;5034153;28;20438;-45
2023/06/05 12:30:10;;;;;;;2.77;2.57;;;;;;;;;;5037913;28;20449;-43
2023/06/05 12:32:38;;;;;;;4.40;2.53;;;;;;;;;;5053813;28;20410;-44
2023/06/05 12:35:05;;;;;;;3.00;2.40;;;;;;;;;;5054000;28;20459;-45
2023/06/05 12:37:32;;;;;;;3.47;2.90;;;;;;;;;;5052608;28;20492;-45
2023/06/05 12:39:59;;;;;;;3.20;2.90;;;;;;;;;;5053114;28;20491;-44
2023/06/05 12:42:25;;;;;;;3.63;3.13;;;;;;;;;;5053101;28;20428;-44
2023/06/05 12:44:51;;;;;;;2.90;2.70;;;;;;;;;;5053471;28;20409;-45
2023/06/05 12:47:17;;;;;;;3.20;2.90;;;;;;;;;;5053735;28;20512;-44
2023/06/05 12:49:43;;;;;;;5.57;3.13;;;;;;;;;;5053580;28;20858;-44
2023/06/05 12:52:09;;;;;;;3.07;2.77;;;;;;;;;;5053889;28;20534;-44
2023/06/05 12:54:39;;;;;;;6.50;2.70;;;;;;;;;;5053347;28;20776;-44
2023/06/05 12:57:09;;;;;;;3.00;2.80;;;;;;;;;;5053527;28;20908;-44
2023/06/05 12:59:35;;;;;;;2.40;2.20;;;;;;;;;;5052721;28;20427;-44
2023/06/05 13:02:01;;;;;;;3.53;3.20;;;;;;;;;;5052793;28;20487;-44
2023/06/05 13:04:27;;;;;;;3.00;2.80;;;;;;;;;;5053128;28;20445;-44
2023/06/05 13:06:54;;;;;;;2.80;2.60;;;;;;;;;;5053424;28;20456;-45
2023/06/05 13:09:20;;;;;;;3.40;2.70;;;;;;;;;;5053644;28;20397;-44
2023/06/05 13:11:46;;;;;;;7.03;3.00;;;;;;;;;;5053339;28;20402;-45
2023/06/05 13:14:12;;;;;;;2.87;2.67;;;;;;;;;;5053075;28;20210;-44
2023/06/05 13:16:38;;;;;;;2.93;2.63;;;;;;;;;;5053102;28;20967;-45
2023/06/05 13:19:04;;;;;;;3.40;3.10;;;;;;;;;;5053373;28;20690;-45
2023/06/05 13:21:30;;;;;;;2.77;2.50;;;;;;;;;;5053281;28;20412;-45
2023/06/05 13:23:56;;;;;;;3.67;2.33;;;;;;;;;;5052777;28;20418;-45
2023/06/05 13:26:22;;;;;;;5.63;2.37;;;;;;;;;;5052904;28;20178;-45
2023/06/05 13:28:48;;;;;;;9.40;2.50;;;;;;;;;;5052852;28;20183;-44
2023/06/05 13:31:14;;;;;;;3.40;2.57;;;;;;;;;;5051847;28;20460;-44
2023/06/05 13:33:41;;;;;;;2.23;2.13;;;;;;;;;;5057217;28;20429;-44
2023/06/05 13:36:08;;;;;;;2.37;2.27;;;;;;;;;;5052705;28;20456;-44
2023/06/05 13:38:37;;;;;;;2.70;2.50;;;;;;;;;;5052645;28;20508;-44
2023/06/05 13:41:03;;;;;;;2.50;2.30;;;;;;;;;;5049802;28;20467;-44
2023/06/05 13:43:29;;;;;;;2.57;2.37;;;;;;;;;;5048087;28;20504;-44
2023/06/05 13:45:55;;;;;;;2.83;2.63;;;;;;;;;;5052575;28;20517;-45
2023/06/05 13:48:21;;;;;;;2.30;2.10;;;;;;;;;;5044488;28;20414;-45
2023/06/05 13:50:47;;;;;;;2.90;2.20;;;;;;;;;;5051758;28;20449;-44
2023/06/05 13:53:13;;;;;;;2.50;2.30;;;;;;;;;;5052290;28;20464;-45
2023/06/05 13:55:40;;;;;;;3.57;2.20;;;;;;;;;;5051415;28;20449;-45
2023/06/05 13:58:06;;;;;;;3.30;2.10;;;;;;;;;;5046320;28;20183;-45
2023/06/05 14:00:32;;;;;;;3.70;2.43;;;;;;;;;;5051270;28;20445;-45
2023/06/05 14:02:59;;;;;;;2.50;2.30;;;;;;;;;;5050149;28;20917;-45
2023/06/05 14:05:25;;;;;;;7.00;2.50;;;;;;;;;;5051018;28;20447;-45
2023/06/05 14:07:52;;;;;;;2.83;2.40;;;;;;;;;;5052137;28;20409;-44
2023/06/05 14:10:19;;;;;;;3.07;2.87;;;;;;;;;;5047587;28;20454;-45
2023/06/05 14:12:45;;;;;;;3.10;2.40;;;;;;;;;;5052071;28;20410;-45
2023/06/05 14:15:11;;;;;;;3.33;2.27;;;;;;;;;;5052232;28;20455;-45
2023/06/05 14:17:37;;;;;;;2.83;2.20;;;;;;;;;;5044447;28;20425;-44
2023/06/05 14:20:03;;;;;;;2.10;2.00;;;;;;;;;;5050188;28;20952;-45
2023/06/05 14:22:29;;;;;;;2.90;2.30;;;;;;;;;;5051657;28;20433;-45
2023/06/05 14:24:55;;;;;;;2.73;2.40;;;;;;;;;;5047437;28;20448;-45
2023/06/05 14:27:22;;;;;;;4.57;1.97;;;;;;;;;;5051983;28;20293;-44
2023/06/05 14:29:48;;;;;;;6.53;2.73;;;;;;;;;;5050274;28;21717;-45
2023/06/05 14:32:14;;;;;;;2.27;2.07;;;;;;;;;;5051859;28;20179;-45
2023/06/05 14:34:40;;;;;;;2.27;2.17;;;;;;;;;;5043662;28;20167;-44
2023/06/05 14:37:06;;;;;;;3.07;2.20;;;;;;;;;;5051737;28;20885;-45
2023/06/05 14:39:32;;;;;;;2.03;1.93;;;;;;;;;;5047376;28;20437;-44
2023/06/05 14:41:58;;;;;;;5.10;2.00;;;;;;;;;;5046070;28;20441;-44
2023/06/05 14:44:24;;;;;;;2.50;2.23;;;;;;;;;;5051383;28;20189;-45